KDRI/DRI METAR and TAF weather

Enter ICAO airport designator
Station Type Date Time Source
KDRI METAR 2020/10/29 17:35 UTC NOAA

KDRI 291735Z AUTO 30011G19KT 10SM SCT032 13/03 A3003 RMK AO2 T01300033


Station Type Date Time Source
KDRI Decoded METAR 2020/10/29 17:35 UTC NOAA

De Ridder, Beauregard Parish Airport, LA, United States (KDRI) 30-49-54N 093-20-23W
Oct 29, 2020 - 01:35 PM EDT / 2020.10.29 1735 UTC
Wind: from the WNW (300 degrees) at 13 MPH (11 KT) gusting to 22 MPH (19 KT):0
Visibility: 10 mile(s):0
Sky conditions: partly cloudy
Temperature: 55.4 F (13.0 C)
Dew Point: 37.9 F (3.3 C)
Relative Humidity: 51%
Pressure (altimeter): 30.03 in. Hg (1016 hPa)
ob: KDRI 291735Z AUTO 30011G19KT 10SM SCT032 13/03 A3003 RMK AO2 T01300033
cycle: 17

Station Type Date Time Source
KDRI TAF UTC NOAA

Error!

Example: see airport list